Time;durP1;ratioP1;P1;durP2;ratioP2;P2;SDS_P1;SDS_P2;PMS_P1;PMS_P2;Temp;Humidity;BMP_temperature;BMP_pressure;BME280_temperature;BME280_humidity;BME280_pressure;Samples;Min_cycle;Max_cycle;Signal;HPM_P1;HPM_P2
2022/03/11 00:00:50;;;;;;;40.40;20.88;;;3.80;99.90;;;;;;5030702;28;20107;-68
2022/03/11 00:03:20;;;;;;;36.35;20.63;;;3.70;99.90;;;;;;5033337;28;20088;-67
2022/03/11 00:05:48;;;;;;;35.85;20.75;;;3.60;99.90;;;;;;5033461;28;20107;-67
2022/03/11 00:08:16;;;;;;;41.97;21.08;;;3.60;99.90;;;;;;5032393;28;20164;-68
2022/03/11 00:10:45;;;;;;;36.15;21.58;;;3.60;99.90;;;;;;5032297;28;20085;-68
2022/03/11 00:13:12;;;;;;;37.33;21.27;;;3.50;99.90;;;;;;5033367;28;20056;-68
2022/03/11 00:15:39;;;;;;;40.75;20.27;;;3.50;99.90;;;;;;5021943;28;20126;-67
2022/03/11 00:18:07;;;;;;;39.33;21.38;;;3.50;99.90;;;;;;5033233;28;20045;-68
2022/03/11 00:20:36;;;;;;;37.88;21.08;;;3.50;99.90;;;;;;5034951;28;20416;-67
2022/03/11 00:23:03;;;;;;;39.22;21.60;;;3.40;99.90;;;;;;5031361;28;20072;-67
2022/03/11 00:25:31;;;;;;;37.40;20.17;;;3.40;99.90;;;;;;5031921;28;20155;-67
2022/03/11 00:27:59;;;;;;;36.55;20.13;;;3.30;99.90;;;;;;5024548;28;20048;-67
2022/03/11 00:30:28;;;;;;;36.67;21.23;;;3.30;99.90;;;;;;5033176;28;20063;-67
2022/03/11 00:32:56;;;;;;;38.30;20.75;;;3.30;99.90;;;;;;5033115;28;20045;-67
2022/03/11 00:35:23;;;;;;;39.15;21.38;;;3.30;99.90;;;;;;5032160;28;20030;-68
2022/03/11 00:37:51;;;;;;;41.28;20.65;;;3.20;99.90;;;;;;5040143;28;20109;-66
2022/03/11 00:40:18;;;;;;;38.40;20.25;;;3.30;99.90;;;;;;5038945;28;20411;-68
2022/03/11 00:42:45;;;;;;;34.75;20.17;;;3.30;99.90;;;;;;5032012;28;20050;-68
2022/03/11 00:45:13;;;;;;;39.47;20.52;;;3.30;99.90;;;;;;5031135;28;20048;-68
2022/03/11 00:47:40;;;;;;;36.80;20.92;;;3.30;99.90;;;;;;5039287;28;20107;-68
2022/03/11 00:50:08;;;;;;;38.30;20.85;;;3.20;99.90;;;;;;5032222;28;20046;-68
2022/03/11 00:52:35;;;;;;;38.22;20.73;;;3.20;99.90;;;;;;5030345;28;20045;-68
2022/03/11 00:55:04;;;;;;;37.88;21.15;;;3.20;99.90;;;;;;5029997;28;20059;-68
2022/03/11 00:57:31;;;;;;;38.75;21.73;;;3.20;99.90;;;;;;5031735;28;20053;-68
2022/03/11 00:59:59;;;;;;;36.78;20.40;;;3.10;99.90;;;;;;5031046;28;20057;-68
2022/03/11 01:02:26;;;;;;;36.55;21.38;;;3.10;99.90;;;;;;5028637;28;20446;-67
2022/03/11 01:04:54;;;;;;;39.72;21.38;;;3.00;99.90;;;;;;5029923;28;20335;-68
2022/03/11 01:07:21;;;;;;;40.08;21.13;;;3.00;99.90;;;;;;5030869;28;20379;-68
2022/03/11 01:09:49;;;;;;;40.42;20.42;;;3.00;99.90;;;;;;5031138;28;20497;-68
2022/03/11 01:12:16;;;;;;;37.67;21.33;;;3.00;99.90;;;;;;5031246;28;20576;-68
2022/03/11 01:14:43;;;;;;;38.72;21.45;;;2.90;99.90;;;;;;5030815;28;20058;-68
2022/03/11 01:17:12;;;;;;;41.17;21.40;;;2.90;99.90;;;;;;5031101;28;20064;-67
2022/03/11 01:19:40;;;;;;;36.25;20.95;;;2.80;99.90;;;;;;5030167;28;20128;-68
2022/03/11 01:22:08;;;;;;;39.53;20.88;;;2.90;99.90;;;;;;5018238;28;20041;-68
2022/03/11 01:24:36;;;;;;;36.97;20.10;;;2.80;99.90;;;;;;5026855;28;20412;-68
2022/03/11 01:27:03;;;;;;;37.10;20.77;;;2.80;99.90;;;;;;5046759;28;20503;-68
2022/03/11 01:29:31;;;;;;;38.50;20.77;;;2.80;99.90;;;;;;5049100;28;20366;-68
2022/03/11 01:31:58;;;;;;;37.85;20.50;;;2.80;99.90;;;;;;5045817;28;20056;-68
2022/03/11 01:34:25;;;;;;;36.10;20.30;;;2.80;99.90;;;;;;5046091;28;20403;-67
2022/03/11 01:36:53;;;;;;;39.05;21.52;;;2.70;99.90;;;;;;5048109;28;20048;-68
2022/03/11 01:39:20;;;;;;;37.53;20.77;;;2.70;99.90;;;;;;5030243;28;20136;-68
2022/03/11 01:41:48;;;;;;;35.70;20.77;;;2.60;99.90;;;;;;5037402;28;20047;-68
2022/03/11 01:44:15;;;;;;;37.75;21.08;;;2.60;99.90;;;;;;5042739;28;20120;-68
2022/03/11 01:46:42;;;;;;;37.53;20.98;;;2.50;99.90;;;;;;5019958;28;20136;-68
2022/03/11 01:49:11;;;;;;;34.25;19.67;;;2.60;99.90;;;;;;5037646;28;20045;-68
2022/03/11 01:51:42;;;;;;;37.45;20.83;;;2.50;99.90;;;;;;5034020;28;20444;-66
2022/03/11 01:54:10;;;;;;;36.55;20.52;;;2.50;99.90;;;;;;5027342;28;20404;-68
2022/03/11 01:56:39;;;;;;;40.40;20.85;;;2.50;99.90;;;;;;5020591;28;20416;-68
2022/03/11 01:59:07;;;;;;;38.05;21.05;;;2.50;99.90;;;;;;5038504;28;20076;-68
2022/03/11 02:01:35;;;;;;;37.03;20.60;;;2.50;99.90;;;;;;5035046;28;20046;-67
2022/03/11 02:04:02;;;;;;;36.97;20.60;;;2.40;99.90;;;;;;5035417;28;20710;-68
2022/03/11 02:06:30;;;;;;;36.60;20.27;;;2.40;99.90;;;;;;5042185;28;20454;-67
2022/03/11 02:08:59;;;;;;;37.13;20.05;;;2.40;99.90;;;;;;5031305;28;20747;-68
2022/03/11 02:11:26;;;;;;;34.65;19.40;;;2.30;99.90;;;;;;5024603;28;20056;-68
2022/03/11 02:13:58;;;;;;;40.50;20.67;;;2.20;99.90;;;;;;5023043;28;20508;-68
2022/03/11 02:16:30;;;;;;;37.92;21.02;;;2.20;99.90;;;;;;5018074;28;20096;-68
2022/03/11 02:18:59;;;;;;;34.50;19.50;;;2.20;99.90;;;;;;5040959;28;20088;-68
2022/03/11 02:21:27;;;;;;;40.60;21.00;;;2.10;99.90;;;;;;5036362;28;20049;-67
2022/03/11 02:23:57;;;;;;;38.13;20.35;;;2.10;99.90;;;;;;5038765;28;20047;-68
2022/03/11 02:26:28;;;;;;;33.80;19.92;;;2.00;99.90;;;;;;5033792;28;20432;-68
2022/03/11 02:28:58;;;;;;;34.78;19.02;;;1.90;99.90;;;;;;5037125;28;20045;-67
2022/03/11 02:31:29;;;;;;;32.08;18.48;;;1.90;99.90;;;;;;5034908;28;20060;-66
2022/03/11 02:33:58;;;;;;;35.17;18.48;;;1.90;99.90;;;;;;5038842;28;20408;-68
2022/03/11 02:36:26;;;;;;;34.58;18.05;;;1.90;99.90;;;;;;5036885;28;20373;-68
2022/03/11 02:38:54;;;;;;;32.17;17.73;;;2.00;99.90;;;;;;5050071;28;20076;-68
2022/03/11 02:41:23;;;;;;;34.45;18.20;;;2.00;99.90;;;;;;5037641;28;20056;-68
2022/03/11 02:43:50;;;;;;;30.10;17.30;;;2.00;99.90;;;;;;5036907;28;20512;-68
2022/03/11 02:46:18;;;;;;;32.17;17.58;;;2.00;99.90;;;;;;5034652;28;20033;-68
2022/03/11 02:48:46;;;;;;;34.80;17.23;;;2.00;99.90;;;;;;5029957;28;20045;-67
2022/03/11 02:51:13;;;;;;;32.20;17.75;;;2.10;99.90;;;;;;5035633;28;20057;-68
2022/03/11 02:53:42;;;;;;;30.40;16.55;;;2.10;99.90;;;;;;5026435;28;20038;-68
2022/03/11 02:56:12;;;;;;;32.50;16.88;;;2.00;99.90;;;;;;5031006;28;20802;-67
2022/03/11 02:58:40;;;;;;;29.88;16.90;;;2.00;99.90;;;;;;5052197;28;20388;-67
2022/03/11 03:01:09;;;;;;;30.05;15.63;;;1.90;99.90;;;;;;5039317;28;20060;-67
2022/03/11 03:03:37;;;;;;;26.15;15.40;;;1.90;99.90;;;;;;5034310;28;20107;-67
2022/03/11 03:06:05;;;;;;;25.38;15.00;;;1.80;99.90;;;;;;5032933;28;20041;-67
2022/03/11 03:08:34;;;;;;;28.90;14.70;;;1.70;99.90;;;;;;5032259;28;20128;-67
2022/03/11 03:11:01;;;;;;;28.25;14.93;;;1.70;99.90;;;;;;5037919;28;20080;-67
2022/03/11 03:13:29;;;;;;;24.55;14.07;;;1.70;99.90;;;;;;5041718;28;20128;-67
2022/03/11 03:15:56;;;;;;;25.75;14.07;;;1.60;99.90;;;;;;5038336;28;20152;-68
2022/03/11 03:18:24;;;;;;;24.33;13.88;;;1.70;99.90;;;;;;5042508;28;20049;-68
2022/03/11 03:20:52;;;;;;;26.90;14.30;;;1.70;99.90;;;;;;5037657;28;20515;-68
2022/03/11 03:23:19;;;;;;;25.73;13.38;;;1.70;99.90;;;;;;5038676;28;20087;-68
2022/03/11 03:25:47;;;;;;;25.63;12.77;;;1.60;99.90;;;;;;5037163;28;20504;-67
2022/03/11 03:28:14;;;;;;;25.42;13.32;;;1.60;99.90;;;;;;5039535;28;20065;-67
2022/03/11 03:30:41;;;;;;;25.35;13.27;;;1.60;99.90;;;;;;5036606;28;20041;-67
2022/03/11 03:33:09;;;;;;;24.48;13.05;;;1.60;99.90;;;;;;5039186;28;20535;-67
2022/03/11 03:35:38;;;;;;;22.30;12.25;;;1.50;99.90;;;;;;5037446;28;20052;-67
2022/03/11 03:38:06;;;;;;;24.50;12.85;;;1.50;99.90;;;;;;5031077;28;20472;-67
2022/03/11 03:40:34;;;;;;;23.80;13.10;;;1.40;99.90;;;;;;5042949;28;20488;-68
2022/03/11 03:43:01;;;;;;;23.10;13.13;;;1.40;99.90;;;;;;5034841;28;20045;-67
2022/03/11 03:45:31;;;;;;;21.55;11.73;;;1.30;99.90;;;;;;5040665;28;20041;-67
2022/03/11 03:48:00;;;;;;;27.55;12.15;;;1.40;99.90;;;;;;5034382;28;20396;-68
2022/03/11 03:50:28;;;;;;;23.00;11.07;;;1.40;99.90;;;;;;5035190;28;20734;-68
2022/03/11 03:52:56;;;;;;;25.20;11.90;;;1.30;99.90;;;;;;5035222;28;20057;-68
2022/03/11 03:55:23;;;;;;;20.95;11.57;;;1.20;99.90;;;;;;5036731;28;20434;-68
2022/03/11 03:57:50;;;;;;;22.27;11.20;;;1.20;99.90;;;;;;5033665;28;20100;-68
2022/03/11 04:00:18;;;;;;;23.27;12.02;;;1.20;99.90;;;;;;5046035;28;20513;-68
2022/03/11 04:02:47;;;;;;;19.90;11.15;;;1.20;99.90;;;;;;5030292;28;20488;-68
2022/03/11 04:05:16;;;;;;;22.08;11.60;;;1.10;99.90;;;;;;5040865;28;20361;-68
2022/03/11 04:07:44;;;;;;;19.00;10.70;;;1.10;99.90;;;;;;5017514;28;20038;-68
2022/03/11 04:10:13;;;;;;;18.20;10.05;;;1.10;99.90;;;;;;5028320;28;20415;-68
2022/03/11 04:12:41;;;;;;;19.70;10.73;;;1.00;99.90;;;;;;5040804;28;20498;-68
2022/03/11 04:15:09;;;;;;;25.40;11.68;;;1.00;99.90;;;;;;5041552;28;20049;-68
2022/03/11 04:17:36;;;;;;;20.27;10.48;;;1.00;99.90;;;;;;5043578;28;20041;-68
2022/03/11 04:20:05;;;;;;;20.73;10.32;;;1.00;99.90;;;;;;5048770;28;20051;-67
2022/03/11 04:22:32;;;;;;;20.80;11.30;;;0.80;99.90;;;;;;5037658;28;20055;-69
2022/03/11 04:24:59;;;;;;;23.20;11.80;;;0.80;99.90;;;;;;5032336;28;20464;-68
2022/03/11 04:27:26;;;;;;;20.55;10.57;;;0.80;99.90;;;;;;5031796;28;20057;-68
2022/03/11 04:29:54;;;;;;;19.20;10.27;;;0.80;99.90;;;;;;5034321;28;20037;-68
2022/03/11 04:32:22;;;;;;;18.77;10.35;;;0.80;99.90;;;;;;5038860;28;20365;-69
2022/03/11 04:34:50;;;;;;;21.25;10.45;;;0.80;99.90;;;;;;5038462;28;20132;-68
2022/03/11 04:37:17;;;;;;;19.65;10.10;;;0.70;99.90;;;;;;5036261;28;20044;-68
2022/03/11 04:39:44;;;;;;;20.60;10.10;;;0.70;99.90;;;;;;5036759;28;20038;-68
2022/03/11 04:42:11;;;;;;;20.50;9.75;;;0.70;99.90;;;;;;5041554;28;20136;-68
2022/03/11 04:44:39;;;;;;;19.55;9.38;;;0.60;99.90;;;;;;5035323;28;20068;-68
2022/03/11 04:47:06;;;;;;;17.42;9.55;;;0.70;99.90;;;;;;5042679;28;20043;-68
2022/03/11 04:49:33;;;;;;;17.92;9.50;;;0.70;99.90;;;;;;5038430;28;20511;-68
2022/03/11 04:52:00;;;;;;;18.75;9.80;;;0.60;99.90;;;;;;5039693;28;20478;-67
2022/03/11 04:54:28;;;;;;;16.02;9.00;;;0.60;99.90;;;;;;5033081;28;20044;-68
2022/03/11 04:56:55;;;;;;;22.13;9.40;;;0.60;99.90;;;;;;5042298;28;20045;-68
2022/03/11 04:59:22;;;;;;;15.23;8.20;;;0.60;99.90;;;;;;5051379;28;20055;-68
2022/03/11 05:01:49;;;;;;;16.63;8.95;;;0.60;99.90;;;;;;5032788;28;20504;-68
2022/03/11 05:04:17;;;;;;;18.52;9.50;;;0.60;99.90;;;;;;5021136;28;20077;-68
2022/03/11 05:06:44;;;;;;;19.52;8.88;;;0.50;99.90;;;;;;5024045;28;20492;-67
2022/03/11 05:09:11;;;;;;;18.27;8.82;;;0.40;99.90;;;;;;5025746;28;20535;-68
2022/03/11 05:11:40;;;;;;;16.90;9.23;;;0.30;99.90;;;;;;5024914;28;20409;-68
2022/03/11 05:14:08;;;;;;;16.90;9.05;;;0.20;99.90;;;;;;5034305;28;20053;-67
2022/03/11 05:16:35;;;;;;;17.42;9.18;;;0.10;99.90;;;;;;5036642;28;20436;-68
2022/03/11 05:19:02;;;;;;;17.40;9.65;;;0.10;99.90;;;;;;5035823;28;20053;-68
2022/03/11 05:21:30;;;;;;;21.02;9.23;;;0.00;99.90;;;;;;5038875;28;20049;-68
2022/03/11 05:23:57;;;;;;;20.10;10.32;;;-0.10;99.90;;;;;;5025672;28;20057;-68
2022/03/11 05:26:25;;;;;;;17.00;9.25;;;-0.20;99.90;;;;;;5036655;28;20136;-68
2022/03/11 05:28:54;;;;;;;21.90;11.50;;;-0.30;99.90;;;;;;5047146;28;20045;-68
2022/03/11 05:31:22;;;;;;;20.27;10.73;;;-0.30;99.90;;;;;;5034394;28;20284;-68
2022/03/11 05:33:50;;;;;;;19.52;9.88;;;-0.40;99.90;;;;;;5028497;28;20053;-68
2022/03/11 05:36:17;;;;;;;20.45;9.93;;;-0.40;99.90;;;;;;5030718;28;20057;-67
2022/03/11 05:38:45;;;;;;;20.48;9.20;;;-0.40;99.90;;;;;;5046014;28;20064;-68
2022/03/11 05:41:12;;;;;;;19.08;9.10;;;-0.50;99.90;;;;;;5051000;28;20049;-68
2022/03/11 05:43:40;;;;;;;19.63;8.38;;;-0.50;99.90;;;;;;5038527;28;20044;-68
2022/03/11 05:46:08;;;;;;;17.20;8.85;;;-0.50;99.90;;;;;;5032656;28;20125;-68
2022/03/11 05:48:35;;;;;;;19.38;8.75;;;-0.50;99.90;;;;;;5032041;28;20042;-67
2022/03/11 05:51:07;;;;;;;15.48;8.40;;;-0.60;99.90;;;;;;5033860;28;20117;-70
2022/03/11 05:53:34;;;;;;;16.20;8.52;;;-0.50;99.90;;;;;;5043072;28;20492;-69
2022/03/11 05:56:02;;;;;;;15.77;9.10;;;-0.50;99.90;;;;;;5042388;28;20117;-66
2022/03/11 05:58:29;;;;;;;18.20;9.30;;;-0.50;99.90;;;;;;5052352;28;20045;-68
2022/03/11 06:00:56;;;;;;;15.43;8.23;;;-0.50;99.90;;;;;;5028315;28;20041;-68
2022/03/11 06:03:24;;;;;;;16.83;9.15;;;-0.50;99.90;;;;;;5033834;28;20172;-68
2022/03/11 06:05:52;;;;;;;19.85;9.77;;;-0.40;99.90;;;;;;5044334;28;20041;-68
2022/03/11 06:08:21;;;;;;;19.92;10.18;;;-0.40;99.90;;;;;;5031032;28;20037;-68
2022/03/11 06:10:49;;;;;;;15.20;8.85;;;-0.30;99.90;;;;;;5036702;28;20555;-69
2022/03/11 06:13:16;;;;;;;16.52;9.15;;;-0.20;99.90;;;;;;5036820;28;20519;-67
2022/03/11 06:15:43;;;;;;;20.25;8.80;;;-0.20;99.90;;;;;;5039976;28;20052;-68
2022/03/11 06:18:13;;;;;;;16.17;7.90;;;-0.10;99.90;;;;;;5037925;28;20053;-68
2022/03/11 06:20:40;;;;;;;18.45;8.57;;;-0.10;99.90;;;;;;5037908;28;20041;-68
2022/03/11 06:23:08;;;;;;;15.07;7.75;;;0.00;99.90;;;;;;5030540;28;20125;-69
2022/03/11 06:25:36;;;;;;;16.52;8.63;;;0.00;99.90;;;;;;5036861;28;20132;-69
2022/03/11 06:28:04;;;;;;;15.95;8.32;;;0.00;99.90;;;;;;5036655;28;20045;-68
2022/03/11 06:30:31;;;;;;;18.85;9.00;;;0.10;99.90;;;;;;5036287;28;20068;-69
2022/03/11 06:32:58;;;;;;;16.58;8.32;;;0.10;99.90;;;;;;5032810;28;20057;-68
2022/03/11 06:35:26;;;;;;;19.25;9.48;;;0.20;99.90;;;;;;5031566;28;20068;-69
2022/03/11 06:37:54;;;;;;;14.55;8.02;;;0.30;99.90;;;;;;5037190;28;20496;-69
2022/03/11 06:40:21;;;;;;;16.45;8.27;;;0.40;99.90;;;;;;5042040;28;20120;-68
2022/03/11 06:42:49;;;;;;;16.15;8.65;;;0.40;99.90;;;;;;5042932;28;20049;-68
2022/03/11 06:45:18;;;;;;;20.20;8.10;;;0.50;99.90;;;;;;5040500;28;20044;-68
2022/03/11 06:47:46;;;;;;;15.88;8.55;;;0.50;99.90;;;;;;5035145;28;20072;-69
2022/03/11 06:50:15;;;;;;;17.48;8.25;;;0.60;99.90;;;;;;5038976;28;20475;-68
2022/03/11 06:52:43;;;;;;;17.83;8.07;;;0.70;99.90;;;;;;5039071;28;20045;-68
2022/03/11 06:55:14;;;;;;;18.65;8.63;;;0.70;99.90;;;;;;5026374;28;20057;-68
2022/03/11 06:57:44;;;;;;;17.23;8.57;;;0.80;99.90;;;;;;5032364;28;20091;-67
2022/03/11 07:00:13;;;;;;;19.15;8.65;;;0.80;99.90;;;;;;5037599;28;20095;-66
2022/03/11 07:02:41;;;;;;;17.23;8.73;;;0.80;99.90;;;;;;5031500;28;20048;-67
2022/03/11 07:05:09;;;;;;;18.75;9.02;;;0.90;99.90;;;;;;5028296;28;20052;-68
2022/03/11 07:07:37;;;;;;;15.35;8.38;;;1.00;99.90;;;;;;5033703;28;20042;-68
2022/03/11 07:10:07;;;;;;;14.10;7.75;;;1.00;99.90;;;;;;5031946;28;20051;-68
2022/03/11 07:12:34;;;;;;;17.17;8.40;;;1.00;99.90;;;;;;5035394;28;20045;-68
2022/03/11 07:15:05;;;;;;;13.88;7.68;;;1.10;99.90;;;;;;5034709;28;20042;-67
2022/03/11 07:17:33;;;;;;;16.23;7.43;;;1.10;99.90;;;;;;5035211;28;20045;-68
2022/03/11 07:20:03;;;;;;;13.70;7.30;;;1.20;99.90;;;;;;5034868;28;20096;-68
2022/03/11 07:22:34;;;;;;;13.90;7.38;;;1.20;99.90;;;;;;5034503;28;20093;-68
2022/03/11 07:25:05;;;;;;;16.08;8.10;;;1.30;99.90;;;;;;5013751;28;20056;-68
2022/03/11 07:27:32;;;;;;;15.90;7.55;;;1.40;99.90;;;;;;5035952;28;20144;-68
2022/03/11 07:29:59;;;;;;;15.30;7.50;;;1.50;99.90;;;;;;5041016;28;20044;-68
2022/03/11 07:32:27;;;;;;;15.57;7.57;;;1.50;99.90;;;;;;5033565;28;20050;-67
2022/03/11 07:34:54;;;;;;;14.10;7.80;;;1.60;99.90;;;;;;5029132;28;20075;-67
2022/03/11 07:37:21;;;;;;;13.90;7.43;;;1.70;99.90;;;;;;5039266;28;20104;-67
2022/03/11 07:39:51;;;;;;;18.10;8.07;;;1.80;99.90;;;;;;5035850;28;20042;-67
2022/03/11 07:42:18;;;;;;;14.65;7.22;;;1.90;99.90;;;;;;5035041;28;20052;-68
2022/03/11 07:44:48;;;;;;;18.98;7.65;;;2.10;99.90;;;;;;5034416;28;20120;-68
2022/03/11 07:47:16;;;;;;;16.50;8.10;;;2.20;99.90;;;;;;5033146;28;20872;-69
2022/03/11 07:49:43;;;;;;;13.80;7.43;;;2.40;99.90;;;;;;5036453;28;20056;-68
2022/03/11 07:52:15;;;;;;;16.02;6.88;;;2.50;99.90;;;;;;5041125;28;20053;-69
2022/03/11 07:54:42;;;;;;;15.80;7.75;;;2.60;99.90;;;;;;5040641;28;20045;-69
2022/03/11 07:57:10;;;;;;;18.23;7.93;;;2.70;99.90;;;;;;5035774;28;20042;-68
2022/03/11 07:59:40;;;;;;;19.08;8.20;;;2.80;99.90;;;;;;5033634;28;20491;-69
2022/03/11 08:02:07;;;;;;;15.43;7.63;;;3.00;99.90;;;;;;5035681;28;20067;-69
2022/03/11 08:04:35;;;;;;;14.95;8.18;;;3.10;99.90;;;;;;5047036;28;20045;-68
2022/03/11 08:07:06;;;;;;;17.05;7.05;;;3.20;99.90;;;;;;5037552;28;22357;-69
2022/03/11 08:09:34;;;;;;;18.48;8.60;;;3.30;99.90;;;;;;5003592;28;20072;-68
2022/03/11 08:12:02;;;;;;;14.68;7.15;;;3.40;99.90;;;;;;5034219;28;20132;-67
2022/03/11 08:14:30;;;;;;;19.92;9.55;;;3.60;99.10;;;;;;5024820;28;20105;-68
2022/03/11 08:16:58;;;;;;;14.65;7.32;;;3.60;98.70;;;;;;5034585;28;20116;-68
2022/03/11 08:19:26;;;;;;;14.20;6.45;;;3.70;98.50;;;;;;5039284;28;20474;-67
2022/03/11 08:21:53;;;;;;;12.43;6.22;;;3.90;98.20;;;;;;5039107;28;20073;-67
2022/03/11 08:24:21;;;;;;;13.52;6.60;;;4.00;97.50;;;;;;5034633;28;20041;-69
2022/03/11 08:26:49;;;;;;;14.45;6.72;;;4.10;96.90;;;;;;5044410;28;20056;-68
2022/03/11 08:29:17;;;;;;;12.18;6.40;;;4.20;96.80;;;;;;5039232;28;20063;-68
2022/03/11 08:31:46;;;;;;;12.10;6.07;;;4.30;95.80;;;;;;5037750;28;20049;-67
2022/03/11 08:34:14;;;;;;;13.45;6.25;;;4.50;95.10;;;;;;5024788;28;20108;-69
2022/03/11 08:36:42;;;;;;;13.65;6.63;;;4.50;94.80;;;;;;5024527;28;20667;-69
2022/03/11 08:39:10;;;;;;;14.77;5.88;;;4.60;94.10;;;;;;5045564;28;20193;-69
2022/03/11 08:41:38;;;;;;;13.73;6.00;;;4.70;94.20;;;;;;5025498;28;20052;-69
2022/03/11 08:44:06;;;;;;;16.77;6.82;;;4.80;94.40;;;;;;5033757;28;20052;-68
2022/03/11 08:46:36;;;;;;;13.40;5.97;;;4.90;93.60;;;;;;5030906;28;20080;-68
2022/03/11 08:49:06;;;;;;;13.13;6.03;;;5.10;93.50;;;;;;5044038;28;20068;-68
2022/03/11 08:51:34;;;;;;;14.00;6.32;;;5.20;93.10;;;;;;5028294;28;20679;-67
2022/03/11 08:54:02;;;;;;;11.30;5.93;;;5.40;92.10;;;;;;5021631;28;20068;-68
2022/03/11 08:56:29;;;;;;;13.77;6.18;;;5.60;91.50;;;;;;5039247;28;20165;-68
2022/03/11 08:58:57;;;;;;;14.23;5.70;;;5.60;91.50;;;;;;5053210;28;20051;-68
2022/03/11 09:01:24;;;;;;;12.50;5.88;;;5.70;91.30;;;;;;5040878;28;20037;-68
2022/03/11 09:03:52;;;;;;;10.40;6.00;;;5.80;90.60;;;;;;5028722;28;20042;-68
2022/03/11 09:06:20;;;;;;;10.02;5.80;;;6.00;90.00;;;;;;5028459;28;20041;-68
2022/03/11 09:08:48;;;;;;;12.82;5.53;;;6.00;89.00;;;;;;5026135;28;20067;-68
2022/03/11 09:11:16;;;;;;;18.63;6.25;;;6.10;88.30;;;;;;5029226;28;20049;-69
2022/03/11 09:13:49;;;;;;;14.23;5.82;;;6.20;87.80;;;;;;5028303;28;20444;-69
2022/03/11 09:16:16;;;;;;;10.48;5.80;;;6.30;86.70;;;;;;5038697;28;20047;-68
2022/03/11 09:18:44;;;;;;;13.65;6.20;;;6.40;86.60;;;;;;5035501;28;20555;-68
2022/03/11 09:21:12;;;;;;;10.27;5.57;;;6.50;86.10;;;;;;5048271;28;20036;-68
2022/03/11 09:23:39;;;;;;;14.48;5.38;;;6.60;84.30;;;;;;5045868;28;20550;-68
2022/03/11 09:26:07;;;;;;;12.18;5.22;;;6.70;83.60;;;;;;5045205;28;20571;-67
2022/03/11 09:28:34;;;;;;;10.32;5.28;;;6.80;82.90;;;;;;5028873;28;20068;-67
2022/03/11 09:31:08;;;;;;;12.25;5.70;;;6.90;82.40;;;;;;5040674;28;20053;-68
2022/03/11 09:33:39;;;;;;;9.75;5.25;;;7.00;82.20;;;;;;5046707;28;20439;-67
2022/03/11 09:36:07;;;;;;;10.50;5.35;;;7.00;81.50;;;;;;5032887;28;20501;-68
2022/03/11 09:38:36;;;;;;;13.90;5.25;;;7.10;81.60;;;;;;5034456;28;20522;-67
2022/03/11 09:41:05;;;;;;;13.90;5.60;;;7.20;81.20;;;;;;5036134;28;20039;-68
2022/03/11 09:43:32;;;;;;;11.13;5.43;;;7.30;80.90;;;;;;5037735;28;20496;-69
2022/03/11 09:46:00;;;;;;;12.02;5.65;;;7.40;80.20;;;;;;5036349;28;20045;-67
2022/03/11 09:48:27;;;;;;;10.50;5.47;;;7.50;79.60;;;;;;5036519;28;20049;-68
2022/03/11 09:50:57;;;;;;;12.52;5.85;;;7.70;79.40;;;;;;5031019;28;20053;-69
2022/03/11 09:53:27;;;;;;;12.85;5.00;;;7.70;77.30;;;;;;5029624;28;20645;-68
2022/03/11 09:55:55;;;;;;;11.02;5.18;;;7.80;76.30;;;;;;5025453;28;20055;-68
2022/03/11 09:58:22;;;;;;;8.75;5.22;;;7.90;76.70;;;;;;5012195;28;20092;-68
2022/03/11 10:00:50;;;;;;;14.15;5.90;;;8.10;76.10;;;;;;5034626;28;20041;-68
2022/03/11 10:03:17;;;;;;;11.70;5.75;;;8.20;75.50;;;;;;5034544;28;20040;-68
2022/03/11 10:05:49;;;;;;;10.93;5.05;;;8.40;74.80;;;;;;5036076;28;20469;-68
2022/03/11 10:08:30;;;;;;;9.68;5.10;;;8.60;74.90;;;;;;5029115;28;20040;-68
2022/03/11 10:11:23;;;;;;;8.98;5.20;;;8.70;73.90;;;;;;5032789;28;20368;-68
2022/03/11 10:14:02;;;;;;;10.05;5.13;;;8.80;72.00;;;;;;5031208;28;20072;-68
2022/03/11 10:16:31;;;;;;;11.98;6.00;;;8.90;72.40;;;;;;5037096;28;20048;-67
2022/03/11 10:19:01;;;;;;;10.98;5.60;;;9.00;70.70;;;;;;5026984;28;20042;-68
2022/03/11 10:21:36;;;;;;;12.88;5.32;;;9.20;71.30;;;;;;5031292;28;20500;-68
2022/03/11 10:24:10;;;;;;;11.25;5.90;;;9.30;71.40;;;;;;5034124;28;20534;-68
2022/03/11 10:26:53;;;;;;;13.05;5.25;;;9.50;70.40;;;;;;5035349;28;20630;-68
2022/03/11 10:29:23;;;;;;;9.98;5.65;;;9.70;70.00;;;;;;5036896;28;20044;-68
2022/03/11 10:31:53;;;;;;;12.25;5.03;;;9.90;69.20;;;;;;5035745;28;20849;-68
2022/03/11 10:34:26;;;;;;;12.82;5.80;;;10.00;67.30;;;;;;5028663;28;20455;-68
2022/03/11 10:37:03;;;;;;;11.77;5.13;;;10.10;66.80;;;;;;5042083;28;20049;-68
2022/03/11 10:39:37;;;;;;;8.88;5.00;;;10.30;67.50;;;;;;5050873;28;21041;-68
2022/03/11 10:42:16;;;;;;;8.43;5.13;;;10.40;66.30;;;;;;5044862;28;20535;-67
2022/03/11 10:45:00;;;;;;;11.55;5.68;;;10.60;66.00;;;;;;5002044;28;20060;-68
2022/03/11 10:47:34;;;;;;;13.98;5.28;;;10.80;65.80;;;;;;5031572;28;20404;-68
2022/03/11 10:50:09;;;;;;;12.23;5.63;;;10.80;64.60;;;;;;5041673;28;20419;-68
2022/03/11 10:52:41;;;;;;;10.38;5.55;;;11.00;64.20;;;;;;5021313;28;20041;-68
2022/03/11 10:55:28;;;;;;;10.18;5.50;;;11.20;63.30;;;;;;5053642;28;20071;-67
2022/03/11 10:58:00;;;;;;;8.77;5.00;;;11.30;62.70;;;;;;5052947;28;20060;-68
2022/03/11 11:00:30;;;;;;;9.35;4.40;;;11.40;62.20;;;;;;5020582;28;20136;-69
2022/03/11 11:03:00;;;;;;;10.45;5.07;;;11.60;61.60;;;;;;5033678;28;20053;-69
2022/03/11 11:05:29;;;;;;;9.35;4.70;;;11.70;60.80;;;;;;5038441;28;20067;-68
2022/03/11 11:07:58;;;;;;;8.38;4.70;;;11.90;60.90;;;;;;5025483;28;20092;-67
2022/03/11 11:10:28;;;;;;;8.57;4.70;;;12.00;59.50;;;;;;5035887;28;20049;-68
2022/03/11 11:12:55;;;;;;;10.57;4.60;;;12.10;59.30;;;;;;5029137;28;20141;-67
2022/03/11 11:15:23;;;;;;;9.85;5.32;;;12.20;59.30;;;;;;5033486;28;20064;-69
2022/03/11 11:17:53;;;;;;;10.05;5.15;;;12.40;57.90;;;;;;5035388;28;20051;-68
2022/03/11 11:20:46;;;;;;;9.38;5.28;;;12.60;57.10;;;;;;5039211;28;20049;-67
2022/03/11 11:23:15;;;;;;;8.27;4.38;;;12.70;57.00;;;;;;5033059;28;20041;-68
2022/03/11 11:25:44;;;;;;;8.70;4.35;;;13.00;57.00;;;;;;5030390;28;20065;-68
2022/03/11 11:28:18;;;;;;;8.30;4.40;;;13.10;56.10;;;;;;5033948;28;20045;-68
2022/03/11 11:30:47;;;;;;;8.55;4.55;;;13.00;56.10;;;;;;5028551;28;20060;-68
2022/03/11 11:33:14;;;;;;;9.60;4.97;;;13.30;56.10;;;;;;5024024;28;20053;-68
2022/03/11 11:35:44;;;;;;;10.32;4.97;;;13.40;56.00;;;;;;5024822;28;20121;-68
2022/03/11 11:38:42;;;;;;;9.73;4.97;;;13.50;56.00;;;;;;5029320;28;20056;-67
2022/03/11 11:41:18;;;;;;;10.10;4.95;;;13.80;54.90;;;;;;5031090;28;20051;-69
2022/03/11 11:44:03;;;;;;;13.05;4.97;;;14.10;54.60;;;;;;5041220;28;20053;-67
2022/03/11 11:46:33;;;;;;;9.10;4.70;;;14.30;53.80;;;;;;5033575;28;20064;-68
2022/03/11 11:49:03;;;;;;;7.22;4.70;;;14.40;53.70;;;;;;5034676;28;20061;-67
2022/03/11 11:51:37;;;;;;;8.88;4.80;;;14.50;53.00;;;;;;5037240;28;20045;-67
2022/03/11 11:54:08;;;;;;;12.23;5.20;;;14.70;53.00;;;;;;5037367;28;20641;-68
2022/03/11 11:56:43;;;;;;;8.73;4.93;;;14.90;53.10;;;;;;5035220;28;20460;-67
2022/03/11 11:59:16;;;;;;;13.52;5.57;;;15.30;52.90;;;;;;5039714;28;20095;-68
2022/03/11 12:01:47;;;;;;;12.55;5.15;;;15.70;52.10;;;;;;5029722;28;20134;-68
2022/03/11 12:04:29;;;;;;;10.38;5.30;;;15.80;52.50;;;;;;5043299;28;20069;-68
2022/03/11 12:07:09;;;;;;;9.57;5.35;;;16.10;51.80;;;;;;5046700;28;20041;-67
2022/03/11 12:09:39;;;;;;;10.80;5.45;;;16.10;51.50;;;;;;5036904;28;20075;-67
2022/03/11 12:12:22;;;;;;;9.18;5.00;;;15.90;51.00;;;;;;5037735;28;20065;-68
2022/03/11 12:15:16;;;;;;;11.13;5.07;;;16.00;50.90;;;;;;5032876;28;20136;-68
2022/03/11 12:17:51;;;;;;;11.55;5.03;;;16.00;50.70;;;;;;5034461;28;20457;-68
2022/03/11 12:20:25;;;;;;;8.20;4.97;;;16.40;50.70;;;;;;5033352;28;20049;-68
2022/03/11 12:23:09;;;;;;;8.90;5.45;;;16.60;50.30;;;;;;5036981;28;20223;-68
2022/03/11 12:25:46;;;;;;;9.02;4.93;;;16.80;50.30;;;;;;5031081;28;20049;-68
2022/03/11 12:28:18;;;;;;;9.13;5.80;;;17.20;50.60;;;;;;5040778;28;20053;-68
2022/03/11 12:30:48;;;;;;;15.80;6.40;;;17.30;49.30;;;;;;5040882;28;20065;-68
2022/03/11 12:33:15;;;;;;;9.50;5.38;;;17.40;49.10;;;;;;5041758;28;20590;-67
2022/03/11 12:35:44;;;;;;;9.45;4.70;;;17.40;49.00;;;;;;5036711;28;20046;-68
2022/03/11 12:38:17;;;;;;;10.63;5.38;;;17.60;49.20;;;;;;5029109;28;20047;-67
2022/03/11 12:40:46;;;;;;;10.88;5.50;;;17.60;48.90;;;;;;5029078;28;20057;-69
2022/03/11 12:43:15;;;;;;;8.57;5.25;;;17.70;48.80;;;;;;5034899;28;20048;-68
2022/03/11 12:45:46;;;;;;;10.30;5.28;;;17.80;48.70;;;;;;5025691;28;20191;-68
2022/03/11 12:48:16;;;;;;;12.68;5.53;;;18.10;48.10;;;;;;5038236;28;20410;-68
2022/03/11 12:50:45;;;;;;;12.45;6.43;;;18.50;47.30;;;;;;5031396;28;20491;-68